Latest Coastal Weather Observations for Bowen Airport AWS

IDQ60701

Issued at 11:02 am EST Wednesday 23 October 2019 (issued every 10 minutes, with the page automatically refreshed every 10 minutes)

About coastal observations | Map of coastal stations | Coastal observations for QLD | Marine services | Other Formats
Station Details ID: 033327 Name: BOWEN AIRPORT AWS Lat: -20.02 Lon: 148.21 Height: 5.9 m
Data from the previous 72 hours. | See also: Recent months at Bowen Airport AWS
Date/Time
EST
Wind Sea
Height
m
Swell Vis
km
Cloud Weather Temp
°C
Press
hPa
Rain since
9am
mm
Dir  Spd
kts
Gust
kts
Height
m
Period
s
Dir
23/11:00am E 17 23 - - - - - - - 28.2 1019.0 0.0
23/10:30am ESE 12 15 - - - - - - - 27.2 1019.4 0.0
23/10:00am SE 14 19 - - - - - - - 26.9 1019.8 0.0
23/09:30am SE 14 18 - - - - - - - 26.9 1020.0 0.0
23/09:00am SE 15 20 - - - - - - - 26.0 1020.0 0.0
23/08:30am SE 16 20 - - - - - - - 25.4 1019.9 0.0
23/08:00am SE 17 22 - - - - - - - 24.8 1019.6 0.0
23/07:30am SE 15 19 - - - - - - - 24.0 1019.3 0.0
23/07:00am SE 12 16 - - - - - - - 23.1 1018.9 0.0
23/06:30am SE 9 11 - - - - - - - 22.2 1018.8 0.0
23/06:00am SSE 10 12 - - - - - - - 21.0 1018.5 0.0
23/05:30am SSE 8 11 - - - - - - - 20.5 1018.1 0.0
23/05:00am SSE 7 9 - - - - - - - 20.3 1018.0 0.0
23/04:30am SSE 8 10 - - - - - - - 20.3 1017.6 0.0
23/04:00am SSE 8 9 - - - - - - - 20.2 1017.5 0.0
23/03:30am SSE 8 9 - - - - - - - 20.4 1017.3 0.0
23/03:00am SSE 8 10 - - - - - - - 20.4 1017.4 0.0
23/02:30am SSE 7 9 - - - - - - - 20.4 1017.5 0.0
23/02:00am SSE 7 9 - - - - - - - 20.4 1017.7 0.0
23/01:30am SSE 7 9 - - - - - - - 20.4 1018.1 0.0
23/01:00am SSE 7 8 - - - - - - - 20.7 1018.4 0.0
23/12:30am SE 8 10 - - - - - - - 21.1 1018.9 0.0
23/12:00am SE 9 11 - - - - - - - 21.5 1019.1 0.0
 
Date/Time
EST
Wind Sea
Height
m
Swell Vis
km
Cloud Weather Temp
°C
Press
hPa
Rain since
9am
mm
Dir  Spd
kts
Gust
kts
Height
m
Period
s
Dir
22/11:30pm SE 9 11 - - - - - - - 21.5 1019.4 0.0
22/11:00pm SE 10 12 - - - - - - - 21.9 1019.7 0.0
22/10:30pm SE 14 18 - - - - - - - 22.9 1019.7 0.0
22/10:00pm SE 16 22 - - - - - - - 23.0 1019.6 0.0
22/09:30pm SE 18 21 - - - - - - - 23.1 1019.3 0.0
22/09:00pm SE 16 19 - - - - - - - 23.2 1019.1 0.0
22/08:30pm SE 16 21 - - - - - - - 23.4 1019.1 0.0
22/08:00pm SE 16 21 - - - - - - - 23.7 1018.7 0.0
22/07:30pm ESE 17 21 - - - - - - - 24.2 1018.6 0.0
22/07:00pm ESE 18 22 - - - - - - - 24.4 1018.2 0.0
22/06:30pm E 16 22 - - - - - - - 24.5 1017.9 0.0
22/06:00pm E 18 25 - - - - - - - 24.7 1017.4 0.0
22/05:30pm E 17 25 - - - - - - - 25.4 1017.0 0.0
22/05:00pm E 18 24 - - - - - - - 26.1 1016.6 0.0
22/04:30pm E 20 27 - - - - - - - 26.5 1016.3 0.0
22/04:00pm E 20 27 - - - - - - - 27.1 1016.1 0.0
22/03:30pm E 20 25 - - - - - - - 27.1 1016.1 0.0
22/03:00pm E 18 23 - - - - - - - 28.5 1016.1 0.0
22/02:30pm E 20 27 - - - - - - - 28.1 1016.3 0.0
22/02:00pm E 21 26 - - - - - - - 28.5 1016.4 0.0
22/01:30pm ENE 20 25 - - - - - - - 28.0 1016.8 0.0
22/01:00pm E 19 25 - - - - - - - 29.2 1017.2 0.0
22/12:30pm E 21 26 - - - - - - - 28.7 1017.8 0.0
22/12:00pm E 19 25 - - - - - - - 28.3 1018.2 0.0
22/11:30am E 19 24 - - - - - - - 29.1 1018.7 0.0
22/11:00am E 16 21 - - - - - - - 28.6 1019.0 0.0
22/10:30am ESE 15 20 - - - - - - - 28.5 1019.4 0.0
22/10:00am E 16 20 - - - - - - - 28.3 1019.6 0.0
22/09:30am ESE 17 22 - - - - - - - 27.9 1019.7 0.0
22/09:00am ESE 16 20 - - - - - - - 26.9 1019.7 0.0
22/08:30am ESE 17 21 - - - - - - - 26.8 1019.7 0.0
22/08:00am SE 14 18 - - - - - - - 25.7 1019.5 0.0
22/07:30am SE 14 17 - - - - - - - 24.9 1019.3 0.0
22/07:00am SE 11 14 - - - - - - - 23.8 1019.2 0.0
22/06:30am SE 10 13 - - - - - - - 22.9 1018.9 0.0
22/06:00am SSE 8 11 - - - - - - - 21.8 1018.6 0.0
22/05:30am SE 10 12 - - - - - - - 21.8 1018.3 0.0
22/05:00am SE 10 13 - - - - - - - 21.8 1018.1 0.0
22/04:30am SE 10 13 - - - - - - - 21.8 1017.7 0.0
22/04:00am SSE 10 13 - - - - - - - 22.0 1017.4 0.0
22/03:30am SSE 9 12 - - - - - - - 22.0 1017.4 0.0
22/03:00am SSE 10 12 - - - - - - - 22.0 1017.4 0.0
22/02:30am SSE 9 10 - - - - - - - 22.1 1017.5 0.0
22/02:00am SSE 8 11 - - - - - - - 22.3 1017.7 0.0
22/01:30am ESE 16 23 - - - - - - - 24.0 1018.0 0.0
22/01:00am SE 12 16 - - - - - - - 23.3 1018.3 0.0
22/12:30am ESE 15 20 - - - - - - - 24.0 1018.5 0.0
22/12:00am SE 14 20 - - - - - - - 24.1 1018.8 0.0
 
Date/Time
EST
Wind Sea
Height
m
Swell Vis
km
Cloud Weather Temp
°C
Press
hPa
Rain since
9am
mm
Dir  Spd
kts
Gust
kts
Height
m
Period
s
Dir
21/11:30pm ESE 14 20 - - - - - - - 24.1 1019.1 0.0
21/11:00pm ESE 13 18 - - - - - - - 24.1 1019.1 0.0
21/10:30pm SE 15 21 - - - - - - - 24.3 1019.0 0.0
21/10:00pm ESE 14 19 - - - - - - - 24.3 1018.9 0.0
21/09:30pm ESE 18 24 - - - - - - - 24.5 1018.7 0.0
21/09:00pm ESE 18 22 - - - - - - - 24.6 1018.4 0.0
21/08:30pm ESE 18 22 - - - - - - - 24.7 1018.2 0.0
21/08:00pm ESE 18 23 - - - - - - - 24.6 1018.1 0.0
21/07:30pm ESE 18 23 - - - - - - - 24.9 1017.8 0.0
21/07:00pm ESE 19 24 - - - - - - - 25.1 1017.4 0.0
21/06:30pm ESE 21 25 - - - - - - - 25.3 1017.0 0.0
21/06:00pm ESE 21 25 - - - - - - - 25.7 1016.5 0.0
21/05:30pm E 20 26 - - - - - - - 26.6 1016.1 0.0
21/05:00pm E 19 27 - - - - - - - 26.7 1015.7 0.0
21/04:30pm E 19 25 - - - - - - - 27.4 1015.4 0.0
21/04:00pm E 19 26 - - - - - - - 27.7 1015.2 0.0
21/03:30pm E 21 26 - - - - - - - 28.3 1015.1 0.0
21/03:00pm E 20 30 - - - - - - - 28.6 1014.9 0.0
21/02:30pm E 22 27 - - - - - - - 29.4 1014.8 0.0
21/02:00pm E 20 26 - - - - - - - 29.6 1015.1 0.0
21/01:30pm E 20 25 - - - - - - - 29.6 1015.5 0.0
21/01:00pm E 19 24 - - - - - - - 30.2 1016.0 0.0
21/12:30pm E 20 25 - - - - - - - 29.8 1016.5 0.0
21/12:00pm E 18 23 - - - - - - - 30.4 1016.7 0.0
21/11:30am E 15 20 - - - - - - - 28.4 1017.3 0.0
21/11:00am SE 17 22 - - - - - - - 30.2 1017.3 0.0
21/10:30am SE 16 19 - - - - - - - 29.8 1017.6 0.0
21/10:00am SE 16 20 - - - - - - - 28.9 1017.7 0.0
21/09:30am SE 15 18 - - - - - - - 28.4 1017.8 0.0
21/09:00am SE 14 17 - - - - - - - 27.1 1017.8 0.0
21/08:30am SE 15 18 - - - - - - - 25.7 1017.9 0.0
21/08:00am SE 13 16 - - - - - - - 26.1 1017.5 0.0
21/07:30am SE 12 15 - - - - - - - 25.4 1017.2 0.0
21/07:00am SE 8 11 - - - - - - - 24.5 1016.9 0.0
21/06:30am SSE 8 10 - - - - - - - 23.3 1016.8 0.0
21/06:00am SSE 8 10 - - - - - - - 22.3 1016.6 0.0
21/05:30am SSE 7 8 - - - - - - - 21.9 1016.1 0.0
21/05:00am SSE 7 8 - - - - - - - 22.0 1015.7 0.0
21/04:30am SSE 6 8 - - - - - - - 22.0 1015.4 0.0
21/04:00am SSE 6 7 - - - - - - - 22.2 1015.2 0.0
21/03:30am SSE 5 6 - - - - - - - 22.1 1015.1 0.0
21/03:00am SSE 5 7 - - - - - - - 22.4 1014.9 0.0
21/02:30am SSE 5 7 - - - - - - - 23.0 1015.0 0.0
21/02:00am SSE 6 8 - - - - - - - 23.5 1015.1 0.0
21/01:30am SE 6 8 - - - - - - - 23.7 1015.3 0.0
21/01:00am SE 4 5 - - - - - - - 23.9 1015.5 0.0
21/12:30am ESE 6 8 - - - - - - - 24.4 1015.7 0.0
21/12:00am E 7 8 - - - - - - - 24.9 1015.9 0.0
 
Date/Time
EST
Wind Sea
Height
m
Swell Vis
km
Cloud Weather Temp
°C
Press
hPa
Rain since
9am
mm
Dir  Spd
kts
Gust
kts
Height
m
Period
s
Dir
20/11:30pm E 7 9 - - - - - - - 25.0 1016.2 0.0
20/11:00pm E 7 9 - - - - - - - 25.0 1016.3 0.0
20/10:30pm NE 4 5 - - - - - - - 24.5 1016.1 0.0
20/10:00pm NE 4 4 - - - - - - - 24.6 1016.1 0.0
20/09:30pm NE 6 8 - - - - - - - 25.1 1016.0 0.0
20/09:00pm ENE 5 8 - - - - - - - 24.9 1016.0 0.0
20/08:30pm ENE 7 10 - - - - - - - 24.9 1015.5 0.0
20/08:00pm ENE 8 11 - - - - - - - 25.0 1015.2 0.0
20/07:30pm ENE 8 12 - - - - - - - 25.1 1014.9 0.0
20/07:00pm ENE 10 14 - - - - - - - 25.2 1014.5 0.0
20/06:30pm ENE 8 10 - - - - - - - 25.2 1014.3 0.0
20/06:00pm NE 8 11 - - - - - - - 25.5 1013.7 0.0
20/05:30pm NE 10 14 - - - - - - - 26.0 1013.4 0.0
20/05:00pm NE 11 16 - - - - - - - 26.3 1013.2 0.0
20/04:30pm NE 12 16 - - - - - - - 27.1 1012.8 0.0
20/04:00pm NNE 12 16 - - - - - - - 27.4 1012.5 0.0
20/03:30pm NE 11 16 - - - - - - - 27.6 1012.4 0.0
20/03:00pm NE 12 16 - - - - - - - 27.9 1012.5 0.0
20/02:30pm NNE 11 17 - - - - - - - 28.1 1012.7 0.0
20/02:00pm NNE 13 17 - - - - - - - 28.3 1012.9 0.0
20/01:30pm NNE 11 14 - - - - - - - 28.7 1013.3 0.0
20/01:00pm NNE 11 15 - - - - - - - 28.6 1013.4 0.0
20/12:30pm NNE 9 13 - - - - - - - 28.7 1013.7 0.0
20/12:00pm NNE 10 14 - - - - - - - 29.0 1014.1 0.0
20/11:30am NNE 9 13 - - - - - - - 28.8 1014.4 0.0

Other formats

Comma delimited format used in spreadsheet applications
http://www.bom.gov.au/fwo/IDQ60701/IDQ60701.94383.axf

JavaScript Object Notation format (JSON) in row-major order
http://www.bom.gov.au/fwo/IDQ60701/IDQ60701.94383.json

Data quality

Most of these data are generated automatically and are frequently updated. Quality checks on data are not normally performed. It is possible for incorrect values to appear. Refer to information at About Latest Weather Observations and please check the disclaimer before using these data.